CPT weather

Cape Town International Airport
Cape Town, Western Cape, South Africa

Public forecast

Using degrees Celsius for public forecast. Weather courtesy of forecast.io.

Current aviation weather report (METAR) for Cape Town International Airport

Retrieved 2019/11/15 11:00 UTC (38 minutes ago):

FACT 151100Z 20017KT 9999 FEW025 24/16 Q1013 NOSIG

Aviation forecast (TAF) for Cape Town International Airport

Retrieved 2019/11/15 06:00 UTC (6 hours ago):

TAF FACT 150400Z 1506/1612 17015KT 9999 SCT012 TX25/1512Z TN16/1604Z FM150800 17022KT CAVOK PROB40 TEMPO 1601/1606 BKN008